Terminal Aerodrome Forecast
Issued by NWS Tampa Bay Area, FL

Home | Current Version | Previous Version | Text Only | Print | Product List | Glossary On
Versions: 1 2 3 4 5 6 7 8 9 10 11 12 13 14 15 16 17
277
FTUS42 KTBW 301120
TAFFMY
TAF
KFMY 301120Z 3012/0112 VRB04KT P6SM VCSH SCT020 BKN250
     FM301400 23005KT P6SM VCTS SCT030CB SCT250
     FM302000 29006KT P6SM SCT040 BKN250
     FM010300 VRB03KT P6SM SCT250=

USA.gov is the U.S. government's official web portal to all federal, state and local government web resources and services.